Bedford, IN (47421)

10:12 AM EDT on September 04, 2015 (GMT -0400)
APRSWXNET | | Change Station
CLOSE
Current Station
Personal Weather Station
Location: Bedford, IN
Elevation: 685 ft
Nearby Weather Stations

Elev 685 ft 38.86 °N, 86.48 °W | Updated 25 minutes ago

Partly Cloudy
Partly Cloudy
79 °F
Feels Like 83 °F
N
0
Wind Variable Wind from SW
Gusts 0.0 mph

Today
High -- | Low -- °F
--% Chance of Precip.
Yesterday
High -- | Low -- °F
Precip. -- in
7:17 AM 8:11 PM
Waning Gibbous, 59% visible
Pressure 30.04 in
Visibility 10.0 miles
Clouds Clear
Heat Index 83 °F
Dew Point 76 °F
Humidity 92%
Rainfall in
Snow Depth Not available.
UV 3 out of 12
Pollen 10.40 out of 12
Air Quality Not available.
Flu Activity Not available.
METAR KBMG 041353Z 00000KT 10SM CLR 27/21 A3006 RMK AO2 SLP170 T02670211
Pressure 30.04 in
Visibility 10.0 miles
Clouds Clear
Heat Index 83 °F
Dew Point 76 °F
Humidity 92%
Rainfall in
Snow Depth Not available.
UV 3 out of 12
Pollen 10.40 out of 12
Air Quality Not available.
Flu Activity Not available.
METAR KBMG 041353Z 00000KT 10SM CLR 27/21 A3006 RMK AO2 SLP170 T02670211

10-Day Weather Forecast

×

Almanac

Astronomy

Sep. 04, 2015 Rise Set
Actual Time
Civil Twilight
Nautical Twilight
Astronomical Twilight
Moon
Length of Visible Light
Length of Day
Tomorrow will be .
, % of the Moon is Illuminated

Today's Extremes

State Highs State Lows

Community

WunderPhotos

Upload Photos

1,852,184 photos uploaded!

WunderBlogs® & News

Nearby

Air Quality

  Air Quality AQ Index Pollutant
Not available.

Snow Depth

Station Depth Elevation

Earthquake Activity

City Distance Mag. Time & Date
Minimum magnitude displayed is 2.5.

Coastal Water Temperatures

Place Temperature

Stations

Nearby Weather Stations

Station Location Temp. Windchill Dew Point Humidity Wind Precip. Elev Updated Type